createdAt,value
2018-09-17T08:17:53.247Z,26.40
2018-09-17T08:20:21.443Z,26.30
2018-09-17T08:22:49.684Z,26.70
2018-09-17T08:25:17.887Z,27.00
2018-09-17T08:27:46.099Z,27.40
2018-09-17T08:30:14.295Z,27.60
2018-09-17T08:32:42.486Z,27.90
2018-09-17T08:35:10.727Z,28.00
2018-09-17T08:37:38.904Z,28.20
2018-09-17T08:40:07.502Z,28.50
2018-09-17T08:42:35.695Z,28.70
2018-09-17T08:45:04.259Z,28.70
2018-09-17T08:47:32.463Z,29.00
2018-09-17T08:50:00.649Z,29.40
2018-09-17T08:52:29.155Z,29.60
2018-09-17T08:55:02.793Z,29.90
2018-09-17T08:57:36.091Z,30.30
2018-09-17T09:00:11.641Z,30.50
2018-09-17T09:02:45.063Z,30.60
2018-09-17T09:05:18.675Z,30.90
2018-09-17T09:07:52.237Z,31.20
2018-09-17T09:10:26.138Z,31.20
2018-09-17T09:13:00.559Z,31.20
2018-09-17T09:15:35.458Z,31.50
2018-09-17T09:18:04.226Z,32.10
2018-09-17T09:20:32.466Z,32.40
2018-09-17T09:23:00.654Z,32.50
2018-09-17T09:25:28.858Z,32.60
2018-09-17T09:27:57.519Z,32.70
2018-09-17T09:30:25.754Z,32.90
2018-09-17T09:32:54.029Z,33.10
2018-09-17T09:35:22.561Z,33.50
2018-09-17T09:37:51.149Z,34.00
2018-09-17T09:40:19.351Z,34.70
2018-09-17T09:42:47.564Z,35.00
2018-09-17T09:45:18.911Z,35.20
2018-09-17T09:47:47.635Z,35.30
2018-09-17T09:50:15.863Z,35.50
2018-09-17T09:52:44.131Z,36.00
2018-09-17T09:55:12.304Z,36.30
2018-09-17T09:57:40.481Z,36.50
2018-09-17T10:00:14.908Z,36.80
2018-09-17T10:02:47.173Z,36.90
2018-09-17T10:05:15.503Z,37.00
2018-09-17T10:07:43.777Z,37.10
2018-09-17T10:10:17.267Z,37.30
2018-09-17T10:12:50.892Z,37.40
2018-09-17T10:15:23.355Z,37.10
2018-09-17T10:17:57.223Z,37.10
2018-09-17T10:20:25.455Z,37.20
2018-09-17T10:22:53.666Z,37.60
2018-09-17T10:25:22.024Z,37.80
2018-09-17T10:27:50.338Z,38.20
2018-09-17T10:30:18.562Z,38.60
2018-09-17T10:32:46.780Z,38.90
2018-09-17T10:35:15.003Z,39.20
2018-09-17T10:37:43.257Z,39.30
2018-09-17T10:40:11.768Z,39.40
2018-09-17T10:42:39.996Z,39.60
2018-09-17T10:45:08.187Z,39.90
2018-09-17T10:47:36.429Z,40.10
2018-09-17T10:50:04.631Z,40.30
2018-09-17T10:52:32.832Z,40.30
2018-09-17T10:55:01.016Z,40.20
2018-09-17T10:57:29.208Z,40.10
2018-09-17T10:59:57.449Z,40.10
2018-09-17T11:02:25.637Z,39.80
2018-09-17T11:04:54.056Z,40.00
2018-09-17T11:07:22.266Z,40.40
2018-09-17T11:09:50.465Z,40.70
2018-09-17T11:12:18.651Z,40.60
2018-09-17T11:14:46.845Z,39.80
2018-09-17T11:17:15.083Z,39.50
2018-09-17T11:19:43.326Z,39.60
2018-09-17T11:22:11.524Z,39.90
2018-09-17T11:24:39.728Z,40.30
2018-09-17T11:27:07.895Z,40.60
2018-09-17T11:29:36.129Z,40.60
2018-09-17T11:32:04.614Z,40.60
2018-09-17T11:34:32.805Z,40.60
2018-09-17T11:37:00.985Z,40.70
2018-09-17T11:39:29.177Z,40.90
2018-09-17T11:41:57.394Z,40.70
2018-09-17T11:44:25.572Z,40.40
2018-09-17T11:46:53.758Z,40.50
2018-09-17T11:49:21.965Z,40.90
2018-09-17T11:51:50.230Z,40.90
2018-09-17T11:54:18.445Z,41.00
2018-09-17T11:56:46.673Z,41.30
2018-09-17T11:59:14.950Z,41.50
2018-09-17T12:01:48.353Z,41.80
2018-09-17T12:04:20.756Z,42.10
2018-09-17T12:06:54.314Z,42.30
2018-09-17T12:09:22.522Z,42.10
2018-09-17T12:11:50.684Z,42.10
2018-09-17T12:14:18.886Z,42.00
2018-09-17T12:16:47.094Z,42.00
2018-09-17T12:19:15.274Z,42.30
2018-09-17T12:21:43.455Z,42.70
2018-09-17T12:24:11.649Z,42.40
2018-09-17T12:26:39.842Z,41.70
2018-09-17T12:29:08.040Z,41.50
2018-09-17T12:31:36.234Z,41.80
2018-09-17T12:34:04.437Z,42.10
2018-09-17T12:36:32.996Z,42.40
2018-09-17T12:39:01.253Z,42.40
2018-09-17T12:41:29.450Z,42.30
2018-09-17T12:43:57.656Z,42.20
2018-09-17T12:46:25.845Z,41.90
2018-09-17T12:48:54.071Z,41.80
2018-09-17T12:51:22.246Z,42.00
2018-09-17T12:53:50.442Z,42.50
2018-09-17T12:56:18.628Z,42.70
2018-09-17T12:58:46.872Z,42.60
2018-09-17T13:01:16.788Z,42.60
2018-09-17T13:03:44.961Z,42.80
2018-09-17T13:06:13.135Z,42.90
2018-09-17T13:08:41.369Z,42.60
2018-09-17T13:11:40.980Z,42.10
2018-09-17T13:14:09.181Z,41.30
2018-09-17T13:16:39.383Z,40.70
2018-09-17T13:19:08.831Z,40.90
2018-09-17T13:21:37.123Z,41.10
2018-09-17T13:24:05.968Z,41.10
2018-09-17T13:26:34.133Z,40.60
2018-09-17T13:29:02.535Z,40.30
2018-09-17T13:31:30.768Z,40.40
2018-09-17T13:33:58.963Z,40.40
2018-09-17T13:36:27.171Z,40.50
2018-09-17T13:38:55.487Z,40.50
2018-09-17T13:41:23.680Z,40.70
2018-09-17T13:43:51.891Z,40.60
2018-09-17T13:46:20.104Z,40.20
2018-09-17T13:48:48.397Z,39.90
2018-09-17T13:51:16.587Z,40.00
2018-09-17T13:53:44.769Z,40.20
2018-09-17T13:56:12.945Z,40.50
2018-09-17T13:58:41.166Z,40.70
2018-09-17T14:01:09.352Z,40.90
2018-09-17T14:03:37.551Z,41.00
2018-09-17T14:06:05.738Z,41.10
2018-09-17T14:08:33.933Z,41.30
2018-09-17T14:11:02.134Z,41.40
2018-09-17T14:13:30.331Z,41.20
2018-09-17T14:16:01.447Z,41.00
2018-09-17T14:18:30.290Z,40.60
2018-09-17T14:20:58.510Z,40.30
2018-09-17T14:23:26.704Z,39.90
2018-09-17T14:25:55.165Z,40.10
2018-09-17T14:28:23.292Z,40.30
2018-09-17T14:30:51.481Z,40.20
2018-09-17T14:33:24.941Z,40.00
2018-09-17T14:35:53.151Z,40.00
2018-09-17T14:38:21.423Z,39.90
2018-09-17T14:40:49.600Z,39.70
2018-09-17T14:43:17.815Z,39.40
2018-09-17T14:45:46.056Z,39.00
2018-09-17T14:48:14.311Z,38.40
2018-09-17T14:50:42.588Z,37.90
2018-09-17T14:53:10.780Z,37.70
2018-09-17T14:55:38.965Z,37.30
2018-09-17T14:58:07.286Z,36.80
2018-09-17T15:00:35.451Z,36.10
2018-09-17T15:03:03.679Z,35.30
2018-09-17T15:05:31.881Z,34.40
2018-09-17T15:08:00.182Z,33.60
2018-09-17T15:10:28.507Z,33.00
2018-09-17T15:12:56.645Z,32.60
2018-09-17T15:15:25.016Z,32.40
2018-09-17T15:17:53.224Z,32.00
2018-09-17T15:20:21.522Z,31.70
2018-09-17T15:22:49.736Z,31.40
2018-09-17T15:25:17.907Z,31.30
2018-09-17T15:27:46.125Z,31.40
2018-09-17T15:30:14.408Z,31.30
2018-09-17T15:32:42.627Z,31.30
2018-09-17T15:35:10.843Z,31.30
2018-09-17T15:37:39.049Z,31.30
2018-09-17T15:40:07.370Z,31.20
2018-09-17T15:42:35.553Z,31.20
2018-09-17T15:45:03.756Z,31.10
2018-09-17T15:47:31.969Z,31.10
2018-09-17T15:50:00.210Z,31.30
2018-09-17T15:52:28.438Z,31.50
2018-09-17T15:54:56.615Z,31.60
2018-09-17T15:57:24.831Z,31.70
2018-09-17T15:59:53.428Z,31.80
2018-09-17T16:02:21.637Z,32.00
2018-09-17T16:04:49.831Z,32.10
2018-09-17T16:07:18.020Z,31.90
2018-09-17T16:09:46.217Z,31.70
2018-09-17T16:12:14.400Z,31.40
2018-09-17T16:14:42.618Z,31.20
2018-09-17T16:17:10.820Z,30.90
2018-09-17T16:19:39.024Z,30.60
2018-09-17T16:22:07.221Z,30.40
2018-09-17T16:24:35.424Z,30.20
2018-09-17T16:27:03.638Z,30.00
2018-09-17T16:29:31.845Z,29.70
2018-09-17T16:32:00.060Z,29.40
2018-09-17T16:34:28.294Z,29.10
2018-09-17T16:36:56.468Z,28.80
2018-09-17T16:39:24.669Z,28.60
2018-09-17T16:41:52.858Z,28.40
2018-09-17T16:44:21.075Z,28.30
2018-09-17T16:46:49.260Z,28.10
2018-09-17T16:49:17.462Z,28.00
2018-09-17T16:51:45.678Z,27.90
2018-09-17T16:54:13.876Z,27.70
2018-09-17T16:56:42.069Z,27.60
2018-09-17T16:59:10.270Z,27.50
2018-09-17T17:01:38.460Z,27.40
2018-09-17T17:04:06.776Z,27.20
2018-09-17T17:06:34.958Z,27.10
2018-09-17T17:09:03.631Z,27.00
2018-09-17T17:11:31.810Z,26.90
2018-09-17T17:14:00.000Z,26.80
2018-09-17T17:16:28.196Z,26.60
2018-09-17T17:18:56.507Z,26.50
2018-09-17T17:21:24.669Z,26.40
2018-09-17T17:23:52.868Z,26.30
2018-09-17T17:26:21.073Z,26.10
2018-09-17T17:28:49.279Z,26.00
2018-09-17T17:31:17.641Z,25.90
2018-09-17T17:33:45.892Z,25.80
2018-09-17T17:36:14.077Z,25.70
2018-09-17T17:38:42.318Z,25.60
2018-09-17T17:41:10.523Z,25.50
2018-09-17T17:43:38.721Z,25.40
2018-09-17T17:46:07.145Z,25.30
2018-09-17T17:48:35.187Z,25.20
2018-09-17T17:51:03.418Z,25.10
2018-09-17T17:53:31.623Z,25.00
2018-09-17T17:55:59.853Z,24.90
2018-09-17T17:58:28.056Z,24.80
2018-09-17T18:00:56.282Z,24.80
2018-09-17T18:03:24.475Z,24.70
2018-09-17T18:05:52.747Z,24.60
2018-09-17T18:08:21.065Z,24.60
2018-09-17T18:10:49.263Z,24.50
2018-09-17T18:13:17.486Z,24.40
2018-09-17T18:15:45.673Z,24.40
2018-09-17T18:18:13.902Z,24.30
2018-09-17T18:20:42.153Z,24.30
2018-09-17T18:23:10.307Z,24.20
2018-09-17T18:25:38.486Z,24.20
2018-09-17T18:28:06.703Z,24.10
2018-09-17T18:30:34.894Z,24.10
2018-09-17T18:33:03.156Z,24.00
2018-09-17T18:35:31.330Z,24.00
2018-09-17T18:37:59.583Z,23.90
2018-09-17T18:40:27.789Z,23.80
2018-09-17T18:42:56.020Z,23.80
2018-09-17T18:45:24.301Z,23.80
2018-09-17T18:47:52.588Z,23.70
2018-09-17T18:50:20.775Z,23.70
2018-09-17T18:52:48.971Z,23.60
2018-09-17T18:55:17.173Z,23.60
2018-09-17T18:57:45.388Z,23.50
2018-09-17T19:00:13.610Z,23.40
2018-09-17T19:02:41.845Z,23.40
2018-09-17T19:05:10.061Z,23.30
2018-09-17T19:07:38.260Z,23.20
2018-09-17T19:10:06.482Z,23.10
2018-09-17T19:12:34.762Z,23.10
2018-09-17T19:15:08.392Z,23.10
2018-09-17T19:17:41.420Z,23.00
2018-09-17T19:20:11.024Z,23.00
2018-09-17T19:22:44.370Z,22.90
2018-09-17T19:25:14.009Z,22.80
2018-09-17T19:27:47.578Z,22.70
2018-09-17T19:30:16.171Z,22.60
2018-09-17T19:32:44.816Z,22.50
2018-09-17T19:35:13.019Z,22.40
2018-09-17T19:37:46.614Z,22.30
2018-09-17T19:40:17.182Z,22.20
2018-09-17T19:42:46.592Z,22.10
2018-09-17T19:45:20.343Z,22.00
2018-09-17T19:47:49.229Z,21.80
2018-09-17T19:50:22.902Z,21.60
2018-09-17T19:52:50.985Z,21.50
2018-09-17T19:55:19.203Z,21.40
2018-09-17T19:57:52.849Z,21.20
2018-09-17T20:00:21.086Z,21.20
2018-09-17T20:02:49.277Z,21.10
2018-09-17T20:05:22.921Z,21.00
2018-09-17T20:07:51.393Z,21.00
2018-09-17T20:10:19.682Z,20.90
2018-09-17T20:12:47.957Z,21.00
2018-09-17T20:15:16.173Z,21.00
2018-09-17T20:17:44.395Z,21.00
2018-09-17T20:20:12.755Z,21.00
2018-09-17T20:22:40.983Z,21.00
2018-09-17T20:25:09.202Z,21.10
2018-09-17T20:27:38.224Z,21.30
2018-09-17T20:30:06.591Z,21.40
2018-09-17T20:32:34.787Z,21.60
2018-09-17T20:35:02.989Z,21.70
2018-09-17T20:37:31.211Z,21.80
2018-09-17T20:39:59.482Z,21.60
2018-09-17T20:42:27.697Z,21.30
2018-09-17T20:44:55.973Z,21.00
2018-09-17T20:47:24.367Z,20.70
2018-09-17T20:49:52.587Z,20.50
2018-09-17T20:52:20.808Z,20.40
2018-09-17T20:54:49.017Z,20.20
2018-09-17T20:57:17.214Z,20.10
2018-09-17T20:59:45.417Z,20.10
2018-09-17T21:02:13.609Z,20.00
2018-09-17T21:04:41.822Z,20.00
2018-09-17T21:07:10.147Z,20.00
2018-09-17T21:09:38.320Z,19.90
2018-09-17T21:12:06.655Z,19.80
2018-09-17T21:14:34.840Z,19.80
2018-09-17T21:17:03.065Z,19.70
2018-09-17T21:19:31.509Z,19.70
2018-09-17T21:21:59.594Z,19.70
2018-09-17T21:24:27.744Z,19.70
2018-09-17T21:26:55.958Z,19.70
2018-09-17T21:29:24.175Z,19.70
2018-09-17T21:31:52.356Z,19.60
2018-09-17T21:34:20.578Z,19.60
2018-09-17T21:36:48.825Z,19.60
2018-09-17T21:39:17.039Z,19.50
2018-09-17T21:41:45.292Z,19.40
2018-09-17T21:44:13.475Z,19.40
2018-09-17T21:46:41.703Z,19.40
2018-09-17T21:49:09.961Z,19.30
2018-09-17T21:51:38.156Z,19.20
2018-09-17T21:54:06.341Z,19.10
2018-09-17T21:56:34.527Z,19.00
2018-09-17T21:59:02.747Z,18.90
2018-09-17T22:01:30.948Z,18.80
2018-09-17T22:46:45.544Z,17.70
2018-09-17T22:49:13.730Z,17.60
2018-09-17T22:51:41.944Z,17.50
2018-09-17T22:54:10.146Z,17.50
2018-09-17T22:56:38.360Z,17.50
2018-09-17T22:59:06.608Z,17.50
2018-09-17T23:01:34.808Z,17.50
2018-09-17T23:04:03.016Z,17.50
2018-09-17T23:06:31.246Z,17.60
2018-09-17T23:08:59.520Z,17.60
2018-09-17T23:11:27.758Z,17.60
2018-09-17T23:13:55.975Z,17.50
2018-09-17T23:16:24.158Z,17.50
2018-09-17T23:18:52.365Z,17.40
2018-09-17T23:21:20.571Z,17.40
2018-09-17T23:23:48.770Z,17.40
2018-09-17T23:26:16.990Z,17.30
2018-09-17T23:28:45.238Z,17.40
2018-09-17T23:31:13.436Z,17.40
2018-09-17T23:33:41.623Z,17.40
2018-09-17T23:36:09.828Z,17.30
2018-09-17T23:38:38.074Z,17.30
2018-09-17T23:41:06.272Z,17.20
2018-09-17T23:43:34.552Z,17.20
2018-09-17T23:46:02.738Z,17.10
2018-09-17T23:48:30.992Z,17.10
2018-09-17T23:50:59.176Z,17.10
2018-09-17T23:53:27.371Z,17.10
2018-09-17T23:55:55.591Z,17.10
2018-09-17T23:58:23.760Z,17.10
